Time;durP1;ratioP1;P1;durP2;ratioP2;P2;SDS_P1;SDS_P2;PMS_P1;PMS_P2;Temp;Humidity;BMP_temperature;BMP_pressure;BME280_temperature;BME280_humidity;BME280_pressure;Samples;Min_cycle;Max_cycle;Signal;HPM_P1;HPM_P2
2022/09/24 00:00:28;;;;;;;;;;;;;;;20.84;45.54;100947.66;5127269;27;19981;-38
2022/09/24 00:02:53;;;;;;;;;;;;;;;20.84;45.69;100958.75;5128477;27;20147;-38
2022/09/24 00:05:19;;;;;;;;;;;;;;;20.84;45.80;100955.97;5127054;27;19931;-38
2022/09/24 00:07:44;;;;;;;;;;;;;;;20.84;45.67;100955.97;5125653;27;20564;-39
2022/09/24 00:10:10;;;;;;;;;;;;;;;20.82;45.71;100949.91;5126589;27;19934;-38
2022/09/24 00:12:36;;;;;;;;;;;;;;;20.81;45.89;100951.84;5129091;27;19927;-38
2022/09/24 00:15:02;;;;;;;;;;;;;;;20.82;45.71;100956.28;5128298;27;19923;-38
2022/09/24 00:17:27;;;;;;;;;;;;;;;20.83;45.75;100948.78;5124384;27;20018;-38
2022/09/24 00:19:53;;;;;;;;;;;;;;;20.80;45.72;100948.25;5128567;28;19927;-38
2022/09/24 00:22:18;;;;;;;;;;;;;;;20.82;45.56;100945.22;5128689;28;19949;-38
2022/09/24 00:27:29;;;;;;;;;;;;;;;20.81;45.80;100949.06;5112212;27;20308;-38
2022/09/24 00:29:55;;;;;;;;;;;;;;;20.83;45.68;100943.25;5129368;27;19938;-38
2022/09/24 00:32:22;;;;;;;;;;;;;;;20.82;45.76;100941.63;5129987;27;19924;-38
2022/09/24 00:34:50;;;;;;;;;;;;;;;20.82;45.68;100942.44;5128779;27;20648;-38
2022/09/24 00:37:17;;;;;;;;;;;;;;;20.82;45.88;100941.63;5126507;28;19981;-38
2022/09/24 00:39:44;;;;;;;;;;;;;;;20.80;45.89;100944.66;5128459;28;20445;-38
2022/09/24 00:42:10;;;;;;;;;;;;;;;20.82;45.88;100947.16;5125347;27;20045;-38
2022/09/24 00:44:42;;;;;;;;;;;;;;;20.82;45.75;100938.84;5129050;27;20377;-38
2022/09/24 00:47:10;;;;;;;;;;;;;;;20.81;45.81;100949.06;5124016;28;19924;-38
2022/09/24 00:49:36;;;;;;;;;;;;;;;20.80;45.81;100952.97;5106553;28;20046;-38
2022/09/24 00:52:04;;;;;;;;;;;;;;;20.82;45.89;100952.69;5128883;27;19930;-38
2022/09/24 00:54:30;;;;;;;;;;;;;;;20.82;45.79;100941.63;5128709;27;20026;-38
2022/09/24 00:56:56;;;;;;;;;;;;;;;20.80;45.95;100947.44;5125578;27;20277;-38
2022/09/24 00:59:21;;;;;;;;;;;;;;;20.82;45.88;100941.63;5127236;27;19972;-38
2022/09/24 01:01:47;;;;;;;;;;;;;;;20.80;45.79;100939.13;5126820;27;19931;-39
2022/09/24 01:04:13;;;;;;;;;;;;;;;20.82;45.79;100936.91;5127593;27;19923;-38
2022/09/24 01:06:39;;;;;;;;;;;;;;;20.80;45.70;100931.63;5125037;27;20483;-38
2022/09/24 01:09:04;;;;;;;;;;;;;;;20.80;45.79;100936.34;5129228;27;19927;-38
2022/09/24 01:11:50;;;;;;;;;;;;;;;20.80;45.98;100926.09;5126953;27;19924;-38
2022/09/24 01:14:25;;;;;;;;;;;;;;;20.80;45.91;100931.63;5125945;27;19980;-39
2022/09/24 01:16:53;;;;;;;;;;;;;;;20.80;45.74;100936.34;5125923;27;20279;-38
2022/09/24 01:19:38;;;;;;;;;;;;;;;20.80;45.78;100937.19;5129129;27;19931;-38
2022/09/24 01:22:14;;;;;;;;;;;;;;;20.80;45.82;100928.88;5111052;28;19982;-38
2022/09/24 01:24:42;;;;;;;;;;;;;;;20.82;45.59;100928.59;5123303;28;20006;-38
2022/09/24 01:27:12;;;;;;;;;;;;;;;20.81;45.78;100929.69;5126929;27;20014;-38
2022/09/24 01:29:42;;;;;;;;;;;;;;;20.81;45.77;100921.38;5127304;27;20013;-38
2022/09/24 01:32:10;;;;;;;;;;;;;;;20.80;45.82;100917.81;5125806;27;20101;-38
2022/09/24 01:34:40;;;;;;;;;;;;;;;20.80;45.87;100912.28;5128206;27;20447;-38
2022/09/24 01:37:05;;;;;;;;;;;;;;;20.79;45.90;100912.56;5107881;28;19988;-38
2022/09/24 01:39:31;;;;;;;;;;;;;;;20.82;45.81;100913.94;5127820;28;20378;-38
2022/09/24 01:41:56;;;;;;;;;;;;;;;20.80;45.89;100906.72;5126472;28;19931;-38
2022/09/24 01:44:22;;;;;;;;;;;;;;;20.81;45.92;100913.09;5127260;27;19923;-38
2022/09/24 01:46:47;;;;;;;;;;;;;;;20.80;46.04;100905.91;5124622;27;20368;-38
2022/09/24 01:49:13;;;;;;;;;;;;;;;20.80;45.95;100914.22;5127128;27;19923;-38
2022/09/24 01:51:42;;;;;;;;;;;;;;;20.81;45.86;100907.56;5127074;27;19923;-38
2022/09/24 01:54:11;;;;;;;;;;;;;;;20.81;45.72;100899.25;5126764;28;19973;-38
2022/09/24 01:56:38;;;;;;;;;;;;;;;20.79;45.98;100899.56;5124343;28;20018;-38
2022/09/24 01:59:08;;;;;;;;;;;;;;;20.78;45.86;100892.38;5109158;28;19974;-38
2022/09/24 02:01:37;;;;;;;;;;;;;;;20.79;45.98;100895.97;5127357;27;20415;-38
2022/09/24 02:04:05;;;;;;;;;;;;;;;20.79;46.00;100895.97;5121612;27;19923;-38
2022/09/24 02:06:35;;;;;;;;;;;;;;;20.78;45.99;100888.78;5126090;27;20048;-38
2022/09/24 02:09:01;;;;;;;;;;;;;;;20.80;45.82;100890.13;5127505;27;20393;-38
2022/09/24 02:11:27;;;;;;;;;;;;;;;20.80;45.97;100889.31;5127267;28;19923;-38
2022/09/24 02:13:55;;;;;;;;;;;;;;;20.80;45.84;100889.31;5129029;27;19927;-38
2022/09/24 02:16:22;;;;;;;;;;;;;;;20.81;45.95;100890.94;5123680;27;20417;-38
2022/09/24 02:18:49;;;;;;;;;;;;;;;20.80;45.99;100898.44;5128308;27;20005;-38
2022/09/24 02:21:16;;;;;;;;;;;;;;;20.80;45.88;100894.84;5126017;27;19962;-38
2022/09/24 02:23:44;;;;;;;;;;;;;;;20.79;45.92;100890.44;5125846;28;20020;-38
2022/09/24 02:26:10;;;;;;;;;;;;;;;20.78;45.93;100886.03;5125351;28;20018;-38
2022/09/24 02:28:35;;;;;;;;;;;;;;;20.79;45.96;100877.41;5128114;27;19931;-38
2022/09/24 02:31:02;;;;;;;;;;;;;;;20.78;45.89;100873.00;5128693;27;19931;-38
2022/09/24 02:36:13;;;;;;;;;;;;;;;20.79;46.03;100873.81;5112846;27;20413;-38
2022/09/24 02:38:39;;;;;;;;;;;;;;;20.79;45.95;100871.88;5130742;27;19938;-38
2022/09/24 02:41:07;;;;;;;;;;;;;;;20.79;45.97;100871.88;5130682;27;20275;-38
2022/09/24 02:43:33;;;;;;;;;;;;;;;20.77;45.88;100857.53;5130969;27;19986;-38
2022/09/24 02:45:59;;;;;;;;;;;;;;;20.77;45.93;100857.53;5123062;28;20019;-38
2022/09/24 02:48:24;;;;;;;;;;;;;;;20.79;46.01;100852.50;5128231;27;20384;-38
2022/09/24 02:50:50;;;;;;;;;;;;;;;20.78;45.98;100848.09;5130529;27;20178;-38
2022/09/24 02:53:15;;;;;;;;;;;;;;;20.78;46.10;100847.28;5129207;27;19927;-38
2022/09/24 02:55:41;;;;;;;;;;;;;;;20.79;46.14;100843.38;5128621;27;20893;-38
2022/09/24 02:58:06;;;;;;;;;;;;;;;20.79;45.95;100846.97;5129987;27;19923;-38
2022/09/24 03:00:32;;;;;;;;;;;;;;;20.78;46.01;100844.50;5128981;28;19935;-38
2022/09/24 03:02:58;;;;;;;;;;;;;;;20.78;46.15;100841.75;5130668;27;20004;-38
2022/09/24 03:05:23;;;;;;;;;;;;;;;20.77;46.15;100845.63;5125269;27;19931;-38
2022/09/24 03:07:49;;;;;;;;;;;;;;;20.79;46.13;100843.38;5129726;27;19938;-38
2022/09/24 03:10:14;;;;;;;;;;;;;;;20.79;46.13;100849.72;5129725;28;19954;-39
2022/09/24 03:12:41;;;;;;;;;;;;;;;20.80;46.06;100839.47;5130509;27;19942;-38
2022/09/24 03:15:07;;;;;;;;;;;;;;;20.79;45.89;100843.38;5129053;27;19988;-38
2022/09/24 03:17:32;;;;;;;;;;;;;;;20.77;46.02;100838.16;5129106;27;19970;-38
2022/09/24 03:19:58;;;;;;;;;;;;;;;20.78;45.97;100837.03;5128034;27;19953;-38
2022/09/24 03:22:23;;;;;;;;;;;;;;;20.77;45.95;100829.84;5129028;27;19936;-38
2022/09/24 03:24:49;;;;;;;;;;;;;;;20.76;46.14;100830.94;5130988;27;20283;-39
2022/09/24 03:27:15;;;;;;;;;;;;;;;20.78;45.99;100827.91;5129672;27;20111;-38
2022/09/24 03:32:26;;;;;;;;;;;;;;;20.77;46.08;100817.94;5114012;27;20463;-38
2022/09/24 03:34:51;;;;;;;;;;;;;;;20.76;46.24;100817.09;5129640;27;20415;-38
2022/09/24 03:37:17;;;;;;;;;;;;;;;20.77;46.10;100824.31;5127728;27;19946;-38
2022/09/24 03:39:42;;;;;;;;;;;;;;;20.77;46.08;100815.19;5131631;27;19930;-38
2022/09/24 03:42:08;;;;;;;;;;;;;;;20.77;46.16;100816.00;5129866;27;19942;-38
2022/09/24 03:44:33;;;;;;;;;;;;;;;20.77;46.22;100820.72;5130178;27;20075;-38
2022/09/24 03:47:00;;;;;;;;;;;;;;;20.77;46.09;100813.25;5124964;28;19976;-38
2022/09/24 03:49:25;;;;;;;;;;;;;;;20.78;46.16;100812.13;5129288;27;19965;-38
2022/09/24 03:51:51;;;;;;;;;;;;;;;20.78;46.04;100814.88;5128816;27;19958;-38
2022/09/24 03:54:17;;;;;;;;;;;;;;;20.78;46.16;100819.59;5127246;27;19928;-38
2022/09/24 03:56:42;;;;;;;;;;;;;;;20.77;46.09;100827.06;5129812;27;19938;-38
2022/09/24 03:59:09;;;;;;;;;;;;;;;20.76;46.08;100817.09;5130762;27;19924;-38
2022/09/24 04:01:36;;;;;;;;;;;;;;;20.77;46.09;100818.78;5128948;27;20026;-38
2022/09/24 04:04:02;;;;;;;;;;;;;;;20.77;46.13;100824.31;5135399;27;19932;-38
2022/09/24 04:06:28;;;;;;;;;;;;;;;20.76;46.06;100817.09;5108210;28;20015;-38
2022/09/24 04:08:54;;;;;;;;;;;;;;;20.76;46.10;100819.03;5130144;27;19924;-38
2022/09/24 04:11:20;;;;;;;;;;;;;;;20.77;46.04;100823.50;5128480;27;20429;-39
2022/09/24 04:13:45;;;;;;;;;;;;;;;20.77;46.06;100820.72;5130772;27;19930;-38
2022/09/24 04:16:11;;;;;;;;;;;;;;;20.79;46.20;100815.69;5126694;27;19931;-38
2022/09/24 04:18:38;;;;;;;;;;;;;;;20.78;46.09;100816.81;5133120;27;20407;-38
2022/09/24 04:21:04;;;;;;;;;;;;;;;20.78;46.18;100814.06;5128349;27;19979;-38
2022/09/24 04:23:30;;;;;;;;;;;;;;;20.77;46.23;100812.41;5129537;27;19935;-38
2022/09/24 04:25:56;;;;;;;;;;;;;;;20.78;46.06;100809.34;5125262;28;19975;-38
2022/09/24 04:28:22;;;;;;;;;;;;;;;20.76;46.28;100797.72;5129700;27;20289;-38
2022/09/24 04:30:47;;;;;;;;;;;;;;;20.76;46.14;100805.22;5127630;27;19923;-38
2022/09/24 04:33:13;;;;;;;;;;;;;;;20.76;46.34;100806.03;5128921;27;19923;-38
2022/09/24 04:35:38;;;;;;;;;;;;;;;20.77;46.17;100816.00;5127255;27;19968;-38
2022/09/24 04:38:04;;;;;;;;;;;;;;;20.76;46.21;100808.81;5126284;27;19954;-37
2022/09/24 04:40:30;;;;;;;;;;;;;;;20.77;46.17;100815.19;5127042;27;19931;-38
2022/09/24 04:42:55;;;;;;;;;;;;;;;20.76;46.11;100813.50;5126947;27;20185;-38
2022/09/24 04:45:23;;;;;;;;;;;;;;;20.77;46.09;100817.94;5125415;27;19931;-38
2022/09/24 04:47:56;;;;;;;;;;;;;;;20.76;46.06;100822.63;5107076;28;20069;-38
2022/09/24 04:50:22;;;;;;;;;;;;;;;20.76;46.26;100825.41;5126379;27;20061;-38
2022/09/24 04:52:47;;;;;;;;;;;;;;;20.77;46.21;100817.94;5128311;27;19924;-39
2022/09/24 04:55:13;;;;;;;;;;;;;;;20.76;46.17;100816.28;5127659;28;19931;-38
2022/09/24 04:57:40;;;;;;;;;;;;;;;20.76;46.16;100817.09;5127844;28;19924;-38
2022/09/24 05:00:07;;;;;;;;;;;;;;;20.75;46.19;100812.69;5128398;27;19980;-38
2022/09/24 05:02:32;;;;;;;;;;;;;;;20.75;46.19;100812.69;5130909;27;19974;-38
2022/09/24 05:04:58;;;;;;;;;;;;;;;20.76;46.39;100807.97;5126935;27;20010;-38
2022/09/24 05:07:24;;;;;;;;;;;;;;;20.77;46.40;100809.66;5127586;27;20307;-38
2022/09/24 05:09:49;;;;;;;;;;;;;;;20.76;46.27;100805.22;5126591;27;19930;-38
2022/09/24 05:12:15;;;;;;;;;;;;;;;20.76;46.28;100811.56;5126658;28;19923;-38
2022/09/24 05:14:40;;;;;;;;;;;;;;;20.76;46.25;100806.03;5128991;27;19923;-38
2022/09/24 05:17:06;;;;;;;;;;;;;;;20.77;46.17;100812.41;5127284;27;20330;-38
2022/09/24 05:19:32;;;;;;;;;;;;;;;20.76;46.27;100810.75;5128092;27;19924;-38
2022/09/24 05:21:57;;;;;;;;;;;;;;;20.76;46.33;100808.81;5127239;28;19989;-38
2022/09/24 05:24:23;;;;;;;;;;;;;;;20.76;46.17;100811.56;5129990;27;19923;-38
2022/09/24 05:27:20;;;;;;;;;;;;;;;20.76;46.22;100814.34;5123094;27;20358;-38
2022/09/24 05:29:42;;;;;;;;;;;;;;;20.76;46.23;100810.75;5111769;28;19963;-38
2022/09/24 05:32:08;;;;;;;;;;;;;;;20.76;46.25;100808.81;5124452;27;19954;-38
2022/09/24 05:34:34;;;;;;;;;;;;;;;20.77;46.15;100812.41;5110172;28;19967;-38
2022/09/24 05:37:00;;;;;;;;;;;;;;;20.77;46.33;100804.13;5124938;28;19976;-38
2022/09/24 05:39:25;;;;;;;;;;;;;;;20.77;46.33;100810.47;5128086;27;20413;-38
2022/09/24 05:41:58;;;;;;;;;;;;;;;20.76;46.39;100811.56;5126851;27;19931;-38
2022/09/24 05:44:23;;;;;;;;;;;;;;;20.76;46.40;100814.34;5125421;27;19968;-38
2022/09/24 05:46:49;;;;;;;;;;;;;;;20.77;46.27;100812.41;5124132;27;19931;-38
2022/09/24 05:49:15;;;;;;;;;;;;;;;20.76;46.42;100819.88;5127753;27;19930;-38
2022/09/24 05:51:40;;;;;;;;;;;;;;;20.76;46.35;100813.50;5108947;28;19923;-38
2022/09/24 05:54:06;;;;;;;;;;;;;;;20.74;46.36;100816.59;5127262;28;19971;-38
2022/09/24 05:56:31;;;;;;;;;;;;;;;20.75;46.31;100821.00;5125524;27;20313;-38
2022/09/24 05:58:57;;;;;;;;;;;;;;;20.76;46.34;100825.41;5127452;27;20182;-38
2022/09/24 06:01:23;;;;;;;;;;;;;;;20.76;46.45;100827.34;5121967;27;19928;-38
2022/09/24 06:03:49;;;;;;;;;;;;;;;20.77;46.24;100821.53;5125400;27;19976;-38
2022/09/24 06:06:14;;;;;;;;;;;;;;;20.77;46.19;100826.25;5128942;27;19931;-38
2022/09/24 06:08:40;;;;;;;;;;;;;;;20.75;46.44;100832.06;5131120;27;21117;-39
2022/09/24 06:11:07;;;;;;;;;;;;;;;20.75;46.50;100828.47;5130985;28;19934;-38
2022/09/24 06:13:33;;;;;;;;;;;;;;;20.73;46.37;100831.56;5131013;27;19996;-38
2022/09/24 06:16:00;;;;;;;;;;;;;;;20.75;46.38;100825.72;5125963;27;19982;-38
2022/09/24 06:18:25;;;;;;;;;;;;;;;20.75;46.26;100821.00;5130025;27;19931;-38
2022/09/24 06:20:51;;;;;;;;;;;;;;;20.73;46.44;100828.78;5132902;27;20004;-38
2022/09/24 06:23:17;;;;;;;;;;;;;;;20.74;46.48;100835.97;5134555;27;20273;-38
2022/09/24 06:25:43;;;;;;;;;;;;;;;20.74;46.35;100835.13;5130277;27;19927;-38
2022/09/24 06:28:08;;;;;;;;;;;;;;;20.76;46.40;100835.66;5131937;27;19960;-38
2022/09/24 06:30:37;;;;;;;;;;;;;;;20.75;46.29;100837.59;5129231;27;20349;-38
2022/09/24 06:33:04;;;;;;;;;;;;;;;20.75;46.40;100839.53;5133093;27;20358;-38
2022/09/24 06:35:30;;;;;;;;;;;;;;;20.76;46.29;100841.19;5109256;28;20382;-38
2022/09/24 06:37:56;;;;;;;;;;;;;;;20.76;46.48;100843.94;5128647;27;20348;-38
2022/09/24 06:40:24;;;;;;;;;;;;;;;20.76;46.50;100844.78;5130873;27;20384;-38
2022/09/24 06:42:51;;;;;;;;;;;;;;;20.75;46.48;100839.53;5130826;27;20002;-38
2022/09/24 06:45:17;;;;;;;;;;;;;;;20.75;46.40;100842.31;5127871;28;19931;-38
2022/09/24 06:47:42;;;;;;;;;;;;;;;20.74;46.51;100848.97;5127032;27;19980;-38
2022/09/24 06:50:08;;;;;;;;;;;;;;;20.75;46.50;100847.84;5128919;27;20297;-38
2022/09/24 06:52:33;;;;;;;;;;;;;;;20.74;46.58;100844.25;5130180;27;19928;-38
2022/09/24 06:54:59;;;;;;;;;;;;;;;20.74;46.46;100843.44;5131423;27;19923;-38
2022/09/24 06:57:24;;;;;;;;;;;;;;;20.74;46.34;100858.09;5130503;27;19931;-38
2022/09/24 06:59:54;;;;;;;;;;;;;;;20.75;46.35;100845.09;5129164;27;20378;-38
2022/09/24 07:02:20;;;;;;;;;;;;;;;20.74;46.59;100847.03;5129091;27;19943;-38
2022/09/24 07:04:45;;;;;;;;;;;;;;;20.74;46.41;100849.78;5129993;27;20142;-38
2022/09/24 07:07:42;;;;;;;;;;;;;;;20.75;46.49;100847.84;5128388;27;19943;-38
2022/09/24 07:09:56;;;;;;;;;;;;;;;20.74;46.40;100848.97;5113508;27;20076;-38
2022/09/24 07:12:22;;;;;;;;;;;;;;;20.73;46.50;100856.47;5130224;27;19927;-38
2022/09/24 07:14:48;;;;;;;;;;;;;;;20.74;46.47;100860.03;5128318;27;19927;-38
2022/09/24 07:17:14;;;;;;;;;;;;;;;20.75;46.48;100859.75;5127541;27;20006;-38
2022/09/24 07:19:41;;;;;;;;;;;;;;;20.74;46.42;100857.28;5114300;28;19931;-38
2022/09/24 07:22:06;;;;;;;;;;;;;;;20.74;46.53;100860.88;5129609;28;19932;-38
2022/09/24 07:24:32;;;;;;;;;;;;;;;20.72;46.46;100860.31;5131739;27;19978;-39
2022/09/24 07:26:57;;;;;;;;;;;;;;;20.75;46.42;100864.44;5109587;27;19950;-38
2022/09/24 07:29:23;;;;;;;;;;;;;;;20.75;46.42;100864.44;5131483;27;19984;-38
2022/09/24 07:31:48;;;;;;;;;;;;;;;20.75;46.50;100870.81;5128944;28;20362;-38
2022/09/24 07:34:14;;;;;;;;;;;;;;;20.75;46.54;100872.75;5127378;27;19947;-38
2022/09/24 07:36:40;;;;;;;;;;;;;;;20.73;46.44;100863.94;5126414;28;20306;-38
2022/09/24 07:39:06;;;;;;;;;;;;;;;20.73;46.57;100873.06;5128893;27;19932;-38
2022/09/24 07:41:32;;;;;;;;;;;;;;;20.74;46.60;100871.94;5127733;28;20319;-38
2022/09/24 07:44:02;;;;;;;;;;;;;;;20.74;46.52;100874.69;5128560;27;20271;-38
2022/09/24 07:46:29;;;;;;;;;;;;;;;20.74;46.58;100877.47;5125964;27;20430;-38
2022/09/24 07:48:55;;;;;;;;;;;;;;;20.75;46.52;100873.56;5129649;27;20060;-38
2022/09/24 07:51:21;;;;;;;;;;;;;;;20.73;46.47;100875.81;5128576;27;20014;-38
2022/09/24 07:53:47;;;;;;;;;;;;;;;20.74;46.46;100880.25;5130085;27;19966;-38
2022/09/24 07:56:13;;;;;;;;;;;;;;;20.73;46.58;100878.59;5127143;27;20517;-38
2022/09/24 07:58:39;;;;;;;;;;;;;;;20.73;46.45;100884.13;5131606;27;19931;-39
2022/09/24 08:01:04;;;;;;;;;;;;;;;20.73;46.53;100886.06;5127408;28;19923;-38
2022/09/24 08:03:30;;;;;;;;;;;;;;;20.74;46.54;100884.94;5126379;27;19984;-38
2022/09/24 08:05:57;;;;;;;;;;;;;;;20.74;46.48;100880.25;5127074;27;20995;-39
2022/09/24 08:08:23;;;;;;;;;;;;;;;20.74;46.52;100882.19;5128087;27;20363;-38
2022/09/24 08:10:48;;;;;;;;;;;;;;;20.75;46.51;100878.28;5108636;28;19924;-38
2022/09/24 08:13:14;;;;;;;;;;;;;;;20.73;46.59;100884.13;5131002;27;19931;-39
2022/09/24 08:15:39;;;;;;;;;;;;;;;20.73;46.50;100883.31;5129304;27;20066;-39
2022/09/24 08:18:05;;;;;;;;;;;;;;;20.73;46.54;100886.91;5129193;28;20051;-38
2022/09/24 08:20:31;;;;;;;;;;;;;;;20.73;46.47;100884.13;5127974;28;19934;-38
2022/09/24 08:23:01;;;;;;;;;;;;;;;20.73;46.60;100881.38;5111441;27;19938;-38
2022/09/24 08:25:26;;;;;;;;;;;;;;;20.72;46.48;100882.44;5129776;27;19977;-38
2022/09/24 08:27:52;;;;;;;;;;;;;;;20.72;46.46;100889.94;5126745;27;19923;-39
2022/09/24 08:30:17;;;;;;;;;;;;;;;20.73;46.63;100883.31;5128321;28;19932;-39
2022/09/24 08:32:45;;;;;;;;;;;;;;;20.74;46.60;100880.25;5131413;27;20339;-38
2022/09/24 08:35:10;;;;;;;;;;;;;;;20.73;46.61;100881.38;5127932;27;20063;-38
2022/09/24 08:37:36;;;;;;;;;;;;;;;20.74;46.52;100876.66;5128065;27;19938;-38
2022/09/24 08:40:02;;;;;;;;;;;;;;;20.71;46.62;100878.03;5129003;27;20405;-38
2022/09/24 08:42:34;;;;;;;;;;;;;;;20.74;46.59;100877.47;5128952;28;20285;-38
2022/09/24 08:47:47;;;;;;;;;;;;;;;20.73;46.55;100875.00;5110166;27;20200;-39
2022/09/24 08:50:16;;;;;;;;;;;;;;;20.73;46.69;100884.13;5106497;28;20021;-38
2022/09/24 08:55:23;;;;;;;;;;;;;;;20.72;46.59;100889.94;5176581;27;20001;-36
2022/09/24 08:58:09;;;;;;;;;;;;;;;20.72;46.56;100887.16;5171800;27;20017;-37
2022/09/24 09:00:38;;;;;;;;;;;;;;;20.74;46.69;100896.03;5159995;27;20029;-37
2022/09/24 09:03:08;;;;;;;;;;;;;;;20.73;46.81;100888.84;5172480;27;20374;-37
2022/09/24 09:05:54;;;;;;;;;;;;;;;20.73;46.64;100886.06;5167986;27;19930;-36
2022/09/24 09:08:23;;;;;;;;;;;;;;;20.73;46.66;100880.53;5155735;27;21176;-36
2022/09/24 09:11:09;;;;;;;;;;;;;;;20.74;46.70;100887.72;5158738;27;19930;-36
2022/09/24 09:13:37;;;;;;;;;;;;;;;20.74;46.50;100888.53;5177802;27;20337;-36
2022/09/24 09:16:05;;;;;;;;;;;;;;;20.71;46.64;100883.56;5169789;27;19962;-37
2022/09/24 09:18:32;;;;;;;;;;;;;;;20.73;46.62;100886.06;5171638;27;19931;-37
2022/09/24 09:21:02;;;;;;;;;;;;;;;20.72;46.54;100888.00;5168696;27;20002;-37
2022/09/24 09:23:30;;;;;;;;;;;;;;;20.71;46.52;100886.34;5169598;27;19982;-36
2022/09/24 09:25:57;;;;;;;;;;;;;;;20.71;46.63;100891.88;5170250;27;20009;-36
2022/09/24 09:28:24;;;;;;;;;;;;;;;20.74;46.63;100893.25;5169904;27;20010;-36
2022/09/24 09:31:07;;;;;;;;;;;;;;;20.74;46.70;100896.03;5171886;27;20042;-36
2022/09/24 09:33:39;;;;;;;;;;;;;;;20.73;46.67;100892.44;5175100;27;19930;-37
2022/09/24 09:36:24;;;;;;;;;;;;;;;20.73;46.53;100897.97;5171327;27;20390;-37
2022/09/24 09:38:53;;;;;;;;;;;;;;;20.74;46.64;100890.47;5149848;27;19966;-37
2022/09/24 09:41:26;;;;;;;;;;;;;;;20.73;46.58;100883.31;5167574;27;20025;-37
2022/09/24 09:43:58;;;;;;;;;;;;;;;20.72;46.76;100884.41;5161355;27;20007;-36
2022/09/24 09:46:26;;;;;;;;;;;;;;;20.72;46.67;100878.88;5151953;27;19967;-36
2022/09/24 09:48:54;;;;;;;;;;;;;;;20.70;46.75;100884.69;5155721;27;19923;-36
2022/09/24 09:51:21;;;;;;;;;;;;;;;20.73;46.81;100880.53;5150220;27;20013;-36
2022/09/24 09:53:56;;;;;;;;;;;;;;;20.71;46.79;100880.81;5152632;27;19923;-37
2022/09/24 09:56:23;;;;;;;;;;;;;;;20.74;46.62;100890.47;5133823;27;20018;-36
2022/09/24 09:58:52;;;;;;;;;;;;;;;20.73;46.83;100877.78;5154769;27;20018;-36
2022/09/24 10:01:17;;;;;;;;;;;;;;;20.74;46.64;100879.41;5155913;27;19997;-37
2022/09/24 10:06:22;;;;;;;;;;;;;;;20.72;46.67;100871.38;5163043;27;20380;-38
2022/09/24 10:08:47;;;;;;;;;;;;;;;20.73;46.62;100880.53;5163193;27;19950;-38
2022/09/24 10:11:14;;;;;;;;;;;;;;;20.72;46.70;100876.91;5164627;27;20401;-39
2022/09/24 10:13:39;;;;;;;;;;;;;;;20.74;46.59;100879.41;5158122;27;19985;-38
2022/09/24 10:16:07;;;;;;;;;;;;;;;20.73;46.80;100888.84;5155841;27;19923;-39
2022/09/24 10:18:36;;;;;;;;;;;;;;;20.72;46.71;100876.09;5144285;27;20387;-38
2022/09/24 10:21:03;;;;;;;;;;;;;;;20.72;46.69;100884.41;5163364;27;20017;-39
2022/09/24 10:23:33;;;;;;;;;;;;;;;20.71;46.79;100880.81;5160488;27;20388;-38
2022/09/24 10:25:59;;;;;;;;;;;;;;;20.74;46.79;100884.94;5162488;27;20069;-39
2022/09/24 10:31:11;;;;;;;;;;;;;;;20.74;46.70;100876.66;5147492;27;20006;-38
2022/09/24 10:33:37;;;;;;;;;;;;;;;20.72;46.70;100879.69;5146757;27;20368;-39
2022/09/24 10:36:03;;;;;;;;;;;;;;;20.72;46.60;100879.69;5161655;27;19927;-39
2022/09/24 10:38:30;;;;;;;;;;;;;;;20.71;46.90;100880.81;5145480;27;20025;-38
2022/09/24 10:40:56;;;;;;;;;;;;;;;20.72;46.68;100882.44;5162314;27;20006;-39
2022/09/24 10:43:22;;;;;;;;;;;;;;;20.73;46.75;100886.06;5161891;27;19934;-39
2022/09/24 10:46:08;;;;;;;;;;;;;;;20.73;46.74;100884.13;5159506;27;20307;-39
2022/09/24 10:48:36;;;;;;;;;;;;;;;20.73;46.68;100883.31;5146771;27;20373;-39
2022/09/24 10:51:05;;;;;;;;;;;;;;;20.73;46.85;100883.31;5161256;27;20442;-38
2022/09/24 10:53:44;;;;;;;;;;;;;;;20.73;46.71;100880.53;5162422;27;20022;-38
2022/09/24 10:56:13;;;;;;;;;;;;;;;20.73;46.69;100886.91;5161177;27;20360;-39
2022/09/24 10:58:58;;;;;;;;;;;;;;;20.73;46.67;100886.91;5161891;27;19963;-39
2022/09/24 11:01:43;;;;;;;;;;;;;;;20.73;46.89;100886.06;5147645;27;20436;-38
2022/09/24 11:04:30;;;;;;;;;;;;;;;20.74;46.61;100884.94;5148836;27;19927;-39
2022/09/24 11:07:21;;;;;;;;;;;;;;;20.72;46.77;100879.69;5144837;27;19999;-39
2022/09/24 11:09:49;;;;;;;;;;;;;;;20.73;46.88;100886.06;5144609;27;20010;-40
2022/09/24 11:12:21;;;;;;;;;;;;;;;20.73;46.73;100877.78;5157457;27;20018;-39
2022/09/24 11:14:54;;;;;;;;;;;;;;;20.73;46.87;100883.31;5157531;27;20014;-39
2022/09/24 11:17:25;;;;;;;;;;;;;;;20.70;46.77;100873.63;5148307;27;20006;-38
2022/09/24 11:19:55;;;;;;;;;;;;;;;20.73;46.85;100878.59;5147616;27;19974;-38
2022/09/24 11:22:24;;;;;;;;;;;;;;;20.72;46.76;100876.91;5148269;27;20026;-39
2022/09/24 11:24:55;;;;;;;;;;;;;;;20.73;46.88;100884.13;5149205;27;20010;-39
2022/09/24 11:27:41;;;;;;;;;;;;;;;20.72;46.85;100878.88;5151166;27;20003;-38
2022/09/24 11:30:11;;;;;;;;;;;;;;;20.72;46.84;100881.63;5132659;27;20453;-39
2022/09/24 11:32:57;;;;;;;;;;;;;;;20.70;46.69;100887.47;5128509;27;19923;-39
2022/09/24 11:35:26;;;;;;;;;;;;;;;20.71;46.72;100880.81;5131136;27;20361;-38
2022/09/24 11:37:59;;;;;;;;;;;;;;;20.70;46.98;100883.88;5147428;27;19974;-39
2022/09/24 11:40:45;;;;;;;;;;;;;;;20.71;46.77;100880.81;5146217;27;20405;-38
2022/09/24 11:43:17;;;;;;;;;;;;;;;20.72;46.90;100874.16;5129957;27;20376;-39
2022/09/24 11:46:02;;;;;;;;;;;;;;;20.72;46.81;100870.56;5125801;27;20034;-39
2022/09/24 11:48:35;;;;;;;;;;;;;;;20.71;46.74;100872.50;5112436;27;19976;-38
2022/09/24 11:51:05;;;;;;;;;;;;;;;20.70;46.88;100872.81;5126915;27;20069;-39
2022/09/24 11:56:14;;;;;;;;;;;;;;;20.72;46.68;100867.78;5173274;27;19934;-36
2022/09/24 11:58:42;;;;;;;;;;;;;;;20.72;46.88;100873.34;5138880;27;20401;-36
2022/09/24 12:01:11;;;;;;;;;;;;;;;20.71;46.80;100857.84;5154669;27;20006;-36
2022/09/24 12:03:39;;;;;;;;;;;;;;;20.72;46.94;100865.84;5156407;27;21301;-37
2022/09/24 12:06:06;;;;;;;;;;;;;;;20.72;46.79;100865.84;5153832;27;19969;-36
2022/09/24 12:08:33;;;;;;;;;;;;;;;20.72;46.88;100862.25;5161217;27;19969;-37
2022/09/24 12:11:01;;;;;;;;;;;;;;;20.71;46.85;100858.66;5151772;27;20356;-36
2022/09/24 12:13:29;;;;;;;;;;;;;;;20.71;46.82;100860.63;5160950;27;20009;-36
2022/09/24 12:15:55;;;;;;;;;;;;;;;20.72;46.79;100865.84;5156298;27;20416;-37
2022/09/24 12:18:23;;;;;;;;;;;;;;;20.70;46.81;100859.78;5157428;27;20369;-37
2022/09/24 12:20:50;;;;;;;;;;;;;;;20.72;46.80;100856.72;5155567;27;20031;-36
2022/09/24 12:23:17;;;;;;;;;;;;;;;20.71;46.80;100855.09;5137405;27;20014;-37
2022/09/24 12:25:44;;;;;;;;;;;;;;;20.72;46.78;100863.09;5159154;27;20016;-36
2022/09/24 12:28:12;;;;;;;;;;;;;;;20.71;46.79;100855.09;5154752;27;19966;-36
2022/09/24 12:33:41;;;;;;;;;;;;;;;20.70;46.90;100854.25;5143711;27;19974;-36
2022/09/24 12:36:23;;;;;;;;;;;;;;;20.70;46.78;100859.78;5154374;27;20048;-36
2022/09/24 12:38:50;;;;;;;;;;;;;;;20.71;46.83;100852.31;5141274;27;19985;-37
2022/09/24 12:41:20;;;;;;;;;;;;;;;20.71;46.79;100853.13;5158913;27;19981;-36
2022/09/24 12:43:49;;;;;;;;;;;;;;;20.72;46.86;100859.50;5154292;27;20391;-36
2022/09/24 12:46:17;;;;;;;;;;;;;;;20.71;46.85;100860.63;5156691;27;20030;-37
2022/09/24 12:48:42;;;;;;;;;;;;;;;20.71;46.85;100855.91;5158569;27;20270;-36
2022/09/24 12:51:09;;;;;;;;;;;;;;;20.71;46.81;100858.66;5159572;27;19930;-37
2022/09/24 12:53:35;;;;;;;;;;;;;;;20.70;46.89;100853.44;5157274;27;19970;-37
2022/09/24 12:56:01;;;;;;;;;;;;;;;20.71;46.81;100849.56;5157583;27;20231;-37
2022/09/24 12:58:29;;;;;;;;;;;;;;;20.71;46.88;100857.84;5141659;27;19990;-36
2022/09/24 13:01:11;;;;;;;;;;;;;;;20.71;46.83;100847.59;5156270;27;19959;-37
2022/09/24 13:03:37;;;;;;;;;;;;;;;20.71;46.82;100853.13;5161284;27;20023;-37